createdAt,value
2023-02-16T00:02:18.712Z,-1.57
2023-02-16T00:04:47.279Z,-1.66
2023-02-16T00:07:15.843Z,-1.64
2023-02-16T00:09:44.450Z,-1.58
2023-02-16T00:12:34.086Z,-1.56
2023-02-16T00:15:02.729Z,-1.49
2023-02-16T00:17:31.440Z,-1.64
2023-02-16T00:20:00.156Z,-1.70
2023-02-16T00:22:28.713Z,-1.78
2023-02-16T00:24:58.104Z,-1.60
2023-02-16T00:27:26.776Z,-1.64
2023-02-16T00:29:55.673Z,-1.74
2023-02-16T00:32:24.439Z,-1.77
2023-02-16T00:34:53.121Z,-1.97
2023-02-16T00:37:24.747Z,-2.05
2023-02-16T00:39:53.551Z,-1.84
2023-02-16T00:42:25.363Z,-1.76
2023-02-16T00:44:57.087Z,-1.83
2023-02-16T00:47:43.840Z,-1.97
2023-02-16T00:50:35.660Z,-1.90
2023-02-16T00:53:04.299Z,-2.32
2023-02-16T00:55:35.332Z,-2.02
2023-02-16T00:58:10.043Z,-1.93
2023-02-16T01:00:44.816Z,-2.09
2023-02-16T01:03:19.086Z,-2.01
2023-02-16T01:05:49.164Z,-2.03
2023-02-16T01:08:37.332Z,-2.13
2023-02-16T01:11:10.347Z,-1.98
2023-02-16T01:13:48.421Z,-1.95
2023-02-16T01:16:26.600Z,-2.18
2023-02-16T01:18:55.424Z,-2.26
2023-02-16T01:21:24.076Z,-2.07
2023-02-16T01:23:52.744Z,-2.17
2023-02-16T01:26:22.339Z,-2.25
2023-02-16T01:28:50.941Z,-2.36
2023-02-16T01:31:19.787Z,-2.40
2023-02-16T01:33:48.589Z,-2.46
2023-02-16T01:36:29.767Z,-2.51
2023-02-16T01:38:58.393Z,-2.36
2023-02-16T01:41:46.594Z,-2.26
2023-02-16T01:44:24.511Z,-2.24
2023-02-16T01:47:02.386Z,-2.37
2023-02-16T01:49:31.179Z,-2.48
2023-02-16T01:52:06.198Z,-2.55
2023-02-16T01:54:37.926Z,-2.60
2023-02-16T01:57:12.524Z,-2.58
2023-02-16T01:59:50.219Z,-2.44
2023-02-16T02:02:27.663Z,-2.36
2023-02-16T02:05:23.233Z,-2.37
2023-02-16T02:07:57.826Z,-2.37
2023-02-16T02:10:38.346Z,-2.42
2023-02-16T02:13:10.004Z,-2.39
2023-02-16T02:15:38.942Z,-2.41
2023-02-16T02:18:07.800Z,-2.49
2023-02-16T02:21:09.625Z,-2.49
2023-02-16T02:23:50.184Z,-2.46
2023-02-16T02:26:50.744Z,-2.42
2023-02-16T02:29:46.355Z,-2.38
2023-02-16T02:32:20.681Z,-2.45
2023-02-16T02:35:19.612Z,-2.56
2023-02-16T02:38:00.332Z,-2.62
2023-02-16T02:40:31.932Z,-2.64
2023-02-16T02:43:27.887Z,-2.71
2023-02-16T02:46:02.500Z,-2.60
2023-02-16T02:48:35.735Z,-2.64
2023-02-16T02:51:33.967Z,-2.49
2023-02-16T02:54:31.892Z,-2.52
2023-02-16T02:57:40.048Z,-2.67
2023-02-16T03:00:38.558Z,-2.60
2023-02-16T03:03:10.266Z,-2.61
2023-02-16T03:05:41.838Z,-2.73
2023-02-16T03:08:16.162Z,-2.60
2023-02-16T03:11:08.759Z,-2.70
2023-02-16T03:13:43.486Z,-2.77
2023-02-16T03:16:15.254Z,-2.96
2023-02-16T03:19:05.097Z,-3.05
2023-02-16T03:21:53.875Z,-3.05
2023-02-16T03:24:46.197Z,-3.09
2023-02-16T03:27:38.267Z,-3.13
2023-02-16T03:30:09.598Z,-3.06
2023-02-16T03:32:39.679Z,-2.97
2023-02-16T03:35:08.942Z,-3.07
2023-02-16T03:37:39.327Z,-2.99
2023-02-16T03:40:29.382Z,-3.05
2023-02-16T03:43:04.168Z,-3.06
2023-02-16T03:45:36.632Z,-3.07
2023-02-16T03:48:05.821Z,-3.04
2023-02-16T03:50:34.854Z,-3.14
2023-02-16T03:53:09.575Z,-3.12
2023-02-16T03:55:41.357Z,-2.94
2023-02-16T03:58:12.428Z,-3.08
2023-02-16T04:00:43.023Z,-3.03
2023-02-16T04:03:12.342Z,-2.95
2023-02-16T04:05:41.153Z,-2.99
2023-02-16T04:08:11.003Z,-2.98
2023-02-16T04:10:40.878Z,-3.19
2023-02-16T04:13:10.046Z,-3.09
2023-02-16T04:15:38.753Z,-2.96
2023-02-16T04:18:07.596Z,-3.12
2023-02-16T04:20:37.141Z,-3.11
2023-02-16T04:23:06.480Z,-3.05
2023-02-16T04:25:35.686Z,-3.09
2023-02-16T04:28:04.610Z,-3.12
2023-02-16T04:30:34.811Z,-3.16
2023-02-16T04:33:03.561Z,-3.18
2023-02-16T04:35:32.272Z,-3.03
2023-02-16T04:38:00.858Z,-3.08
2023-02-16T04:40:29.503Z,-3.08
2023-02-16T04:42:58.140Z,-3.11
2023-02-16T04:45:26.865Z,-3.15
2023-02-16T04:47:55.630Z,-3.20
2023-02-16T04:50:24.298Z,-3.39
2023-02-16T04:52:56.312Z,-3.39
2023-02-16T04:55:25.623Z,-3.48
2023-02-16T04:57:54.335Z,-3.50
2023-02-16T05:00:23.121Z,-3.44
2023-02-16T05:02:54.352Z,-3.47
2023-02-16T05:05:22.989Z,-3.43
2023-02-16T05:07:51.503Z,-3.44
2023-02-16T05:10:20.214Z,-3.45
2023-02-16T05:13:07.008Z,-3.52
2023-02-16T05:15:35.747Z,-3.52
2023-02-16T05:18:04.482Z,-3.48
2023-02-16T05:20:50.873Z,-3.45
2023-02-16T05:23:19.544Z,-3.44
2023-02-16T05:25:48.174Z,-3.46
2023-02-16T05:28:16.851Z,-3.44
2023-02-16T05:30:45.520Z,-3.39
2023-02-16T05:33:14.135Z,-3.48
2023-02-16T05:35:42.722Z,-3.47
2023-02-16T05:38:14.041Z,-3.53
2023-02-16T05:40:42.844Z,-3.42
2023-02-16T05:43:11.536Z,-3.37
2023-02-16T05:45:40.866Z,-3.30
2023-02-16T05:48:09.689Z,-3.16
2023-02-16T05:50:38.206Z,-3.13
2023-02-16T05:53:14.310Z,-3.00
2023-02-16T05:55:49.501Z,-3.07
2023-02-16T05:58:18.196Z,-3.04
2023-02-16T06:00:46.881Z,-2.92
2023-02-16T06:03:15.559Z,-2.90
2023-02-16T06:05:44.122Z,-2.92
2023-02-16T06:08:12.785Z,-2.77
2023-02-16T06:10:41.307Z,-2.60
2023-02-16T06:13:10.018Z,-2.59
2023-02-16T06:15:38.854Z,-2.60
2023-02-16T06:18:09.869Z,-2.45
2023-02-16T06:20:40.744Z,-2.43
2023-02-16T06:23:11.805Z,-2.29
2023-02-16T06:25:45.583Z,-2.18
2023-02-16T06:28:14.158Z,-2.15
2023-02-16T06:30:42.901Z,-2.04
2023-02-16T06:33:11.637Z,-1.96
2023-02-16T06:35:40.246Z,-1.88
2023-02-16T06:38:09.152Z,-1.89
2023-02-16T06:40:37.821Z,-1.77
2023-02-16T06:43:06.488Z,-1.70
2023-02-16T06:45:35.183Z,-1.62
2023-02-16T06:48:09.822Z,-1.72
2023-02-16T06:50:39.759Z,-1.69
2023-02-16T06:53:10.501Z,-1.54
2023-02-16T06:55:39.294Z,-1.52
2023-02-16T06:59:01.311Z,-1.47
2023-02-16T07:01:44.254Z,-1.43
2023-02-16T07:13:29.805Z,-1.01
2023-02-16T07:15:58.588Z,-0.84
2023-02-16T07:18:27.388Z,-0.68
2023-02-16T07:21:06.273Z,-0.43
2023-02-16T07:23:35.870Z,-0.36
2023-02-16T07:26:38.009Z,-0.32
2023-02-16T07:29:06.775Z,-0.20
2023-02-16T07:31:36.376Z,-0.09
2023-02-16T07:34:05.147Z,0.09
2023-02-16T07:36:34.156Z,0.21
2023-02-16T07:42:37.628Z,0.61
2023-02-16T07:45:06.670Z,0.81
2023-02-16T07:47:35.416Z,0.92
2023-02-16T07:50:04.135Z,0.99
2023-02-16T07:52:33.175Z,1.11
2023-02-16T07:55:20.927Z,1.04
2023-02-16T07:57:53.263Z,1.23
2023-02-16T08:00:50.968Z,1.21
2023-02-16T08:04:26.237Z,1.19
2023-02-16T08:06:46.055Z,1.45
2023-02-16T08:09:15.050Z,1.56
2023-02-16T08:11:46.683Z,1.51
2023-02-16T08:14:19.884Z,1.70
2023-02-16T08:16:58.084Z,1.87
2023-02-16T08:19:28.602Z,1.91
2023-02-16T08:21:57.372Z,1.96
2023-02-16T08:24:30.092Z,2.29
2023-02-16T08:26:58.896Z,2.25
2023-02-16T08:29:28.485Z,2.35
2023-02-16T08:31:57.284Z,2.52
2023-02-16T08:34:30.434Z,2.81
2023-02-16T08:39:44.111Z,2.94
2023-02-16T08:42:13.614Z,3.03
2023-02-16T08:44:42.535Z,3.24
2023-02-16T08:47:11.904Z,3.46
2023-02-16T08:49:44.960Z,3.64
2023-02-16T08:52:14.565Z,3.53
2023-02-16T08:54:44.956Z,3.63
2023-02-16T08:57:13.684Z,3.81
2023-02-16T08:59:42.450Z,3.73
2023-02-16T09:02:12.620Z,3.74
2023-02-16T09:04:43.665Z,3.40
2023-02-16T09:07:16.616Z,3.99
2023-02-16T09:09:45.295Z,3.77
2023-02-16T09:16:28.164Z,4.16
2023-02-16T09:19:01.388Z,4.20
2023-02-16T09:21:34.303Z,4.20
2023-02-16T09:24:05.277Z,4.05
2023-02-16T09:26:39.291Z,4.06
2023-02-16T09:32:28.930Z,4.44
2023-02-16T09:34:57.852Z,4.53
2023-02-16T09:37:26.644Z,4.58
2023-02-16T09:40:02.587Z,4.77
2023-02-16T09:42:37.891Z,4.93
2023-02-16T09:48:07.776Z,4.90
2023-02-16T09:50:53.734Z,5.07
2023-02-16T09:53:39.512Z,5.43
2023-02-16T09:59:56.918Z,5.73
2023-02-16T10:02:48.058Z,6.00
2023-02-16T10:05:24.315Z,5.69
2023-02-16T10:08:09.528Z,5.86
2023-02-16T10:10:53.924Z,5.93
2023-02-16T10:13:25.679Z,6.03
2023-02-16T10:15:58.201Z,5.96
2023-02-16T10:18:40.578Z,6.12
2023-02-16T10:27:55.576Z,6.49
2023-02-16T11:15:31.106Z,7.92
2023-02-16T11:18:13.640Z,8.06
2023-02-16T11:20:47.974Z,8.23
2023-02-16T11:23:28.547Z,8.31
2023-02-16T11:26:03.953Z,8.30
2023-02-16T11:28:38.865Z,8.09
2023-02-16T11:31:22.488Z,8.30
2023-02-16T11:34:10.162Z,8.25
2023-02-16T11:36:42.284Z,8.41
2023-02-16T11:39:28.781Z,8.53
2023-02-16T11:42:08.438Z,8.47
2023-02-16T11:44:47.071Z,8.52
2023-02-16T11:47:28.490Z,8.73
2023-02-16T11:50:19.921Z,8.83
2023-02-16T11:52:54.051Z,8.99
2023-02-16T11:55:36.173Z,8.95
2023-02-16T11:58:33.596Z,9.10
2023-02-16T12:01:29.789Z,9.28
2023-02-16T12:07:48.602Z,9.27
2023-02-16T12:10:40.056Z,8.93
2023-02-16T12:13:28.855Z,8.80
2023-02-16T12:16:05.654Z,8.93
2023-02-16T12:19:01.437Z,9.15
2023-02-16T12:21:46.831Z,8.75
2023-02-16T12:24:36.784Z,9.42
2023-02-16T12:27:28.239Z,9.56
2023-02-16T12:30:00.123Z,9.64
2023-02-16T12:32:38.295Z,9.46
2023-02-16T12:35:16.216Z,9.13
2023-02-16T12:38:04.521Z,9.35
2023-02-16T12:40:58.696Z,9.04
2023-02-16T12:44:01.561Z,8.94
2023-02-16T12:46:42.433Z,9.16
2023-02-16T12:49:24.844Z,9.32
2023-02-16T12:52:08.720Z,9.55
2023-02-16T12:54:50.551Z,9.70
2023-02-16T12:57:26.529Z,9.71
2023-02-16T13:00:27.209Z,9.84
2023-02-16T13:02:59.315Z,9.70
2023-02-16T13:05:37.973Z,9.64
2023-02-16T13:08:26.382Z,9.58
2023-02-16T13:10:59.258Z,9.63
2023-02-16T13:13:33.166Z,9.75
2023-02-16T13:16:05.512Z,9.70
2023-02-16T13:18:40.048Z,9.88
2023-02-16T13:21:50.379Z,9.92
2023-02-16T13:24:21.505Z,9.98
2023-02-16T13:30:40.468Z,10.07
2023-02-16T13:33:41.058Z,10.10
2023-02-16T13:36:19.428Z,10.17
2023-02-16T13:38:51.941Z,9.99
2023-02-16T13:41:36.180Z,10.18
2023-02-16T13:44:19.911Z,10.19
2023-02-16T13:46:53.051Z,9.85
2023-02-16T13:49:45.092Z,9.94
2023-02-16T13:52:32.108Z,10.11
2023-02-16T13:55:04.401Z,9.98
2023-02-16T13:57:52.703Z,10.09
2023-02-16T14:00:34.203Z,10.25
2023-02-16T14:03:06.119Z,10.23
2023-02-16T14:05:42.211Z,10.16
2023-02-16T14:08:13.946Z,10.13
2023-02-16T14:10:55.381Z,10.19
2023-02-16T14:13:49.042Z,10.18
2023-02-16T14:16:34.165Z,10.12
2023-02-16T14:19:35.140Z,10.04
2023-02-16T14:25:24.346Z,10.06
2023-02-16T14:28:07.853Z,9.97
2023-02-16T14:30:52.437Z,10.01
2023-02-16T14:33:42.676Z,9.95
2023-02-16T14:36:18.272Z,9.84
2023-02-16T14:38:52.309Z,9.80
2023-02-16T14:41:32.828Z,9.69
2023-02-16T14:44:11.604Z,9.74
2023-02-16T14:46:50.593Z,9.73
2023-02-16T14:49:38.212Z,9.73
2023-02-16T14:52:38.151Z,9.72
2023-02-16T14:55:32.490Z,9.52
2023-02-16T14:58:29.770Z,9.47
2023-02-16T15:01:04.356Z,9.29
2023-02-16T15:03:46.321Z,9.26
2023-02-16T15:06:36.685Z,9.24
2023-02-16T15:09:09.595Z,9.22
2023-02-16T15:11:42.465Z,9.21
2023-02-16T15:14:12.707Z,9.17
2023-02-16T15:16:43.336Z,8.97
2023-02-16T15:19:15.032Z,8.88
2023-02-16T15:21:43.854Z,8.75
2023-02-16T15:24:24.810Z,8.72
2023-02-16T15:26:59.649Z,8.67
2023-02-16T15:29:35.158Z,8.63
2023-02-16T15:32:07.431Z,8.51
2023-02-16T15:34:44.749Z,8.36
2023-02-16T15:37:37.075Z,8.26
2023-02-16T15:40:25.916Z,8.21
2023-02-16T15:42:49.798Z,8.04
2023-02-16T15:45:37.044Z,7.81
2023-02-16T15:48:24.867Z,7.69
2023-02-16T15:51:05.289Z,7.51
2023-02-16T15:53:45.871Z,7.33
2023-02-16T15:56:24.559Z,7.23
2023-02-16T15:58:57.880Z,7.11
2023-02-16T16:01:31.989Z,6.98
2023-02-16T16:04:09.456Z,6.99
2023-02-16T16:06:40.920Z,6.92
2023-02-16T16:09:12.568Z,6.79
2023-02-16T16:11:41.436Z,6.66
2023-02-16T16:14:15.379Z,6.54
2023-02-16T16:16:46.286Z,6.43
2023-02-16T16:19:24.852Z,6.38
2023-02-16T16:21:55.835Z,6.15
2023-02-16T16:24:32.318Z,6.17
2023-02-16T16:27:03.795Z,6.00
2023-02-16T16:29:46.197Z,5.79
2023-02-16T16:32:28.896Z,5.66
2023-02-16T16:34:59.027Z,5.50
2023-02-16T16:37:36.765Z,5.37
2023-02-16T16:40:27.199Z,5.34
2023-02-16T16:43:07.400Z,5.22
2023-02-16T16:45:53.977Z,5.06
2023-02-16T16:48:28.678Z,5.06
2023-02-16T16:57:52.871Z,4.79
2023-02-16T17:00:26.405Z,4.60
2023-02-16T17:02:55.292Z,4.60
2023-02-16T17:05:29.445Z,4.51
2023-02-16T17:07:58.174Z,4.39
2023-02-16T17:10:27.352Z,4.40
2023-02-16T17:12:59.154Z,4.35
2023-02-16T17:15:30.900Z,4.36
2023-02-16T17:17:59.822Z,4.30
2023-02-16T17:20:28.632Z,4.23
2023-02-16T17:22:59.165Z,4.20
2023-02-16T17:25:47.803Z,4.23
2023-02-16T17:28:19.763Z,4.31
2023-02-16T17:30:51.377Z,4.23
2023-02-16T17:33:24.631Z,4.21
2023-02-16T17:35:57.833Z,4.06
2023-02-16T17:38:26.270Z,4.02
2023-02-16T17:40:57.378Z,3.94
2023-02-16T17:43:28.197Z,3.87
2023-02-16T17:46:00.025Z,3.81
2023-02-16T17:48:30.693Z,3.75
2023-02-16T17:50:59.964Z,3.75
2023-02-16T17:53:29.218Z,3.64
2023-02-16T17:56:00.383Z,3.51
2023-02-16T17:58:29.027Z,3.50
2023-02-16T18:01:05.582Z,3.40
2023-02-16T18:03:36.060Z,3.37
2023-02-16T18:06:05.319Z,3.26
2023-02-16T18:08:34.374Z,3.29
2023-02-16T18:11:04.308Z,3.01
2023-02-16T18:13:37.568Z,3.35
2023-02-16T18:16:04.563Z,3.24
2023-02-16T18:18:37.424Z,3.13
2023-02-16T18:21:08.075Z,3.07
2023-02-16T18:23:40.084Z,3.16
2023-02-16T18:26:12.046Z,3.09
2023-02-16T18:28:41.089Z,2.93
2023-02-16T18:31:10.955Z,2.87
2023-02-16T18:33:40.114Z,2.85
2023-02-16T18:36:10.026Z,2.79
2023-02-16T18:38:39.065Z,2.79
2023-02-16T18:41:08.552Z,2.76
2023-02-16T18:43:37.398Z,2.77
2023-02-16T18:46:08.719Z,2.77
2023-02-16T18:48:37.948Z,2.80
2023-02-16T18:51:11.810Z,2.62
2023-02-16T18:53:42.852Z,2.63
2023-02-16T18:56:13.098Z,2.56
2023-02-16T19:05:19.931Z,2.56
2023-02-16T19:07:49.100Z,2.42
2023-02-16T19:10:19.238Z,2.41
2023-02-16T19:12:47.974Z,2.30
2023-02-16T19:15:16.548Z,2.30
2023-02-16T19:17:45.300Z,2.23
2023-02-16T19:20:16.249Z,2.14
2023-02-16T19:22:46.100Z,2.10
2023-02-16T19:25:15.617Z,2.09
2023-02-16T19:27:45.154Z,2.12
2023-02-16T19:30:15.884Z,2.12
2023-02-16T19:32:44.531Z,2.03
2023-02-16T19:35:13.514Z,2.10
2023-02-16T19:37:42.255Z,1.85
2023-02-16T19:40:13.299Z,1.94
2023-02-16T19:42:41.960Z,2.09
2023-02-16T19:45:10.978Z,2.08
2023-02-16T19:47:39.548Z,1.96
2023-02-16T19:50:08.784Z,1.97
2023-02-16T19:52:38.964Z,1.90
2023-02-16T19:55:09.546Z,1.87
2023-02-16T19:57:51.132Z,1.71
2023-02-16T20:00:22.044Z,1.76
2023-02-16T20:02:52.495Z,1.67
2023-02-16T20:05:29.196Z,1.83
2023-02-16T20:11:42.434Z,1.74
2023-02-16T20:14:15.457Z,1.53
2023-02-16T20:19:47.693Z,1.57
2023-02-16T20:22:18.052Z,1.40
2023-02-16T20:24:51.072Z,1.34
2023-02-16T20:30:24.991Z,1.24
2023-02-16T20:32:53.791Z,1.20
2023-02-16T20:35:23.153Z,1.25
2023-02-16T20:37:52.126Z,1.15
2023-02-16T20:40:22.769Z,1.30
2023-02-16T20:42:54.867Z,1.20
2023-02-16T20:45:23.921Z,1.31
2023-02-16T20:47:53.076Z,1.17
2023-02-16T20:50:22.152Z,0.92
2023-02-16T20:52:50.999Z,1.05
2023-02-16T20:55:19.721Z,1.02
2023-02-16T20:57:50.135Z,1.07
2023-02-16T21:00:21.760Z,0.99
2023-02-16T21:02:51.281Z,0.93
2023-02-16T21:05:21.817Z,0.95
2023-02-16T21:07:50.641Z,0.89
2023-02-16T21:10:19.383Z,1.03
2023-02-16T21:12:51.248Z,0.83
2023-02-16T21:15:20.378Z,1.06
2023-02-16T21:18:00.886Z,0.93
2023-02-16T21:26:36.496Z,0.86
2023-02-16T21:29:12.620Z,0.77
2023-02-16T21:31:46.463Z,0.68
2023-02-16T21:34:32.072Z,0.66
2023-02-16T21:37:18.954Z,0.60
2023-02-16T21:43:16.190Z,0.41
2023-02-16T21:45:46.635Z,0.26
2023-02-16T21:48:34.128Z,0.22
2023-02-16T21:51:07.610Z,0.27
2023-02-16T21:53:39.658Z,0.29
2023-02-16T21:56:19.702Z,0.42
2023-02-16T21:58:48.527Z,0.48
2023-02-16T22:01:26.610Z,0.45
2023-02-16T22:03:59.406Z,0.50
2023-02-16T22:06:32.491Z,0.32
2023-02-16T22:09:05.021Z,0.31
2023-02-16T22:11:33.802Z,0.33
2023-02-16T22:14:05.323Z,0.20
2023-02-16T22:16:36.049Z,0.17
2023-02-16T22:19:08.032Z,0.24
2023-02-16T22:21:38.938Z,0.25
2023-02-16T22:24:08.427Z,0.33
2023-02-16T22:26:37.818Z,0.37
2023-02-16T22:29:08.028Z,0.32
2023-02-16T22:31:37.951Z,0.47
2023-02-16T22:34:09.705Z,0.31
2023-02-16T22:36:38.863Z,0.37
2023-02-16T22:39:08.152Z,0.17
2023-02-16T22:41:37.239Z,0.13
2023-02-16T22:44:05.934Z,0.06
2023-02-16T22:46:34.865Z,0.17
2023-02-16T22:49:03.790Z,0.04
2023-02-16T22:51:32.628Z,0.00
2023-02-16T22:54:02.852Z,-0.06
2023-02-16T22:56:33.481Z,-0.11
2023-02-16T22:59:02.862Z,-0.19
2023-02-16T23:01:51.483Z,-0.11
2023-02-16T23:04:20.430Z,-0.19
2023-02-16T23:06:49.211Z,-0.28
2023-02-16T23:09:21.520Z,-0.20
2023-02-16T23:11:50.657Z,-0.13
2023-02-16T23:14:21.087Z,-0.17
2023-02-16T23:16:53.176Z,-0.21
2023-02-16T23:19:24.394Z,-0.21
2023-02-16T23:21:53.387Z,-0.14
2023-02-16T23:24:24.339Z,-0.18
2023-02-16T23:26:53.196Z,-0.26
2023-02-16T23:29:21.853Z,-0.34
2023-02-16T23:31:51.024Z,-0.32
2023-02-16T23:34:20.714Z,-0.31
2023-02-16T23:36:49.535Z,-0.31
2023-02-16T23:39:19.411Z,-0.29
2023-02-16T23:41:48.574Z,-0.33
2023-02-16T23:44:17.403Z,-0.34
2023-02-16T23:46:47.521Z,-0.37
2023-02-16T23:49:16.224Z,-0.76
2023-02-16T23:51:44.909Z,-0.44
2023-02-16T23:54:13.438Z,-0.41
2023-02-16T23:56:42.159Z,-0.56
2023-02-16T23:59:10.717Z,-0.48
